createdAt,value
2018-09-23T00:01:53.353Z,1.60
2018-09-23T00:04:21.506Z,1.33
2018-09-23T00:06:49.654Z,1.30
2018-09-23T00:09:17.822Z,1.30
2018-09-23T00:11:45.956Z,1.30
2018-09-23T00:14:13.875Z,1.23
2018-09-23T00:16:41.829Z,2.10
2018-09-23T00:19:09.994Z,1.50
2018-09-23T00:21:38.143Z,1.30
2018-09-23T00:24:06.590Z,1.37
2018-09-23T00:26:34.734Z,1.40
2018-09-23T00:29:02.943Z,1.87
2018-09-23T00:31:31.082Z,1.20
2018-09-23T00:33:59.247Z,1.50
2018-09-23T00:36:27.409Z,1.57
2018-09-23T00:38:55.532Z,1.47
2018-09-23T00:41:23.696Z,2.07
2018-09-23T00:43:51.837Z,1.30
2018-09-23T00:46:19.974Z,1.93
2018-09-23T00:48:47.885Z,1.40
2018-09-23T00:51:15.790Z,1.90
2018-09-23T00:53:44.054Z,1.77
2018-09-23T00:56:12.450Z,1.67
2018-09-23T00:58:40.594Z,1.60
2018-09-23T01:01:08.754Z,1.50
2018-09-23T01:03:36.662Z,1.60
2018-09-23T01:06:04.805Z,1.83
2018-09-23T01:08:32.701Z,1.63
2018-09-23T01:11:00.887Z,1.33
2018-09-23T01:13:29.027Z,1.40
2018-09-23T01:15:56.938Z,1.60
2018-09-23T01:18:24.848Z,1.87
2018-09-23T01:20:52.785Z,1.40
2018-09-23T01:23:20.929Z,1.40
2018-09-23T01:25:49.094Z,1.43
2018-09-23T01:28:17.017Z,1.60
2018-09-23T01:30:45.194Z,1.40
2018-09-23T01:33:13.354Z,1.37
2018-09-23T01:35:41.486Z,1.50
2018-09-23T01:38:09.652Z,1.20
2018-09-23T01:40:37.810Z,1.50
2018-09-23T01:43:06.290Z,1.50
2018-09-23T01:45:34.202Z,1.57
2018-09-23T01:48:02.343Z,1.57
2018-09-23T01:50:30.507Z,1.50
2018-09-23T01:52:58.670Z,1.33
2018-09-23T01:55:26.866Z,2.27
2018-09-23T01:57:55.026Z,1.40
2018-09-23T02:00:23.178Z,1.37
2018-09-23T02:02:51.349Z,1.20
2018-09-23T02:05:19.511Z,1.40
2018-09-23T02:07:47.744Z,1.50
2018-09-23T02:10:15.890Z,1.30
2018-09-23T02:12:44.058Z,1.70
2018-09-23T02:15:12.238Z,1.40
2018-09-23T02:17:40.396Z,1.40
2018-09-23T02:20:08.529Z,1.63
2018-09-23T02:22:36.682Z,1.47
2018-09-23T02:25:04.853Z,1.60
2018-09-23T02:27:33.018Z,1.60
2018-09-23T02:30:01.181Z,1.70
2018-09-23T02:32:29.325Z,1.50
2018-09-23T02:34:57.516Z,1.30
2018-09-23T02:37:25.654Z,1.67
2018-09-23T02:39:53.857Z,1.67
2018-09-23T02:42:22.005Z,1.30
2018-09-23T02:44:49.935Z,1.80
2018-09-23T02:47:18.141Z,1.40
2018-09-23T02:49:46.053Z,1.60
2018-09-23T02:52:14.259Z,1.80
2018-09-23T02:54:42.655Z,1.33
2018-09-23T02:57:10.558Z,1.70
2018-09-23T02:59:38.735Z,1.33
2018-09-23T03:02:06.911Z,1.60
2018-09-23T03:04:35.082Z,1.43
2018-09-23T03:07:03.246Z,1.70
2018-09-23T03:09:31.400Z,1.30
2018-09-23T03:11:59.555Z,1.63
2018-09-23T03:14:27.488Z,2.30
2018-09-23T03:16:55.642Z,1.93
2018-09-23T03:19:23.774Z,1.70
2018-09-23T03:21:51.925Z,3.60
2018-09-23T03:24:19.849Z,1.50
2018-09-23T03:26:47.990Z,1.80
2018-09-23T03:29:16.138Z,1.70
2018-09-23T03:31:44.274Z,1.73
2018-09-23T03:34:12.429Z,1.80
2018-09-23T03:36:40.564Z,1.93
2018-09-23T03:39:08.962Z,1.80
2018-09-23T03:41:37.114Z,1.77
2018-09-23T03:44:05.414Z,2.07
2018-09-23T03:46:33.590Z,2.20
2018-09-23T03:49:01.974Z,1.80
2018-09-23T03:51:29.898Z,1.80
2018-09-23T03:53:58.085Z,1.90
2018-09-23T03:56:26.230Z,2.37
2018-09-23T03:58:54.422Z,2.07
2018-09-23T04:01:22.609Z,1.70
2018-09-23T04:03:50.755Z,1.67
2018-09-23T04:06:18.668Z,2.30
2018-09-23T04:08:46.591Z,1.90
2018-09-23T04:11:14.766Z,2.00
2018-09-23T04:13:42.926Z,1.73
2018-09-23T04:16:11.081Z,2.13
2018-09-23T04:18:38.978Z,1.80
2018-09-23T04:21:06.910Z,1.70
2018-09-23T04:23:35.058Z,1.87
2018-09-23T04:26:02.975Z,1.70
2018-09-23T04:28:30.909Z,1.97
2018-09-23T04:30:58.821Z,1.80
2018-09-23T04:33:26.973Z,2.10
2018-09-23T04:35:55.130Z,2.10
2018-09-23T04:38:23.054Z,2.00
2018-09-23T04:40:51.235Z,1.97
2018-09-23T04:43:19.401Z,1.90
2018-09-23T04:45:47.370Z,2.30
2018-09-23T04:48:15.553Z,2.20
2018-09-23T04:50:43.709Z,2.00
2018-09-23T04:53:11.629Z,1.90
2018-09-23T04:55:39.542Z,2.13
2018-09-23T04:58:07.466Z,2.03
2018-09-23T05:00:35.615Z,1.80
2018-09-23T05:03:03.754Z,2.20
2018-09-23T05:05:31.658Z,1.97
2018-09-23T05:07:59.790Z,1.73
2018-09-23T05:10:27.961Z,1.80
2018-09-23T05:12:56.137Z,2.00
2018-09-23T05:15:24.298Z,1.60
2018-09-23T05:17:52.425Z,2.13
2018-09-23T05:20:20.565Z,1.90
2018-09-23T05:22:48.481Z,1.90
2018-09-23T05:25:16.623Z,1.97
2018-09-23T05:27:44.757Z,1.60
2018-09-23T05:30:12.898Z,1.80
2018-09-23T05:32:41.025Z,1.70
2018-09-23T05:35:09.172Z,1.80
2018-09-23T05:37:37.322Z,2.03
2018-09-23T05:40:06.249Z,2.03
2018-09-23T05:42:34.391Z,1.60
2018-09-23T05:45:02.526Z,1.80
2018-09-23T05:47:30.677Z,1.87
2018-09-23T05:49:58.814Z,1.73
2018-09-23T05:52:26.973Z,1.53
2018-09-23T05:54:55.108Z,1.40
2018-09-23T05:57:23.027Z,1.70
2018-09-23T05:59:51.209Z,1.70
2018-09-23T06:02:19.363Z,1.87
2018-09-23T06:04:47.512Z,1.50
2018-09-23T06:07:15.662Z,1.53
2018-09-23T06:09:43.805Z,1.90
2018-09-23T06:12:11.959Z,2.60
2018-09-23T06:14:40.133Z,1.60
2018-09-23T06:17:08.411Z,1.50
2018-09-23T06:19:36.554Z,1.67
2018-09-23T06:22:04.705Z,1.63
2018-09-23T06:24:32.862Z,1.50
2018-09-23T06:27:01.006Z,1.63
2018-09-23T06:29:29.182Z,2.30
2018-09-23T06:31:57.338Z,1.57
2018-09-23T06:34:25.499Z,1.57
2018-09-23T06:36:53.694Z,1.53
2018-09-23T06:39:21.790Z,1.60
2018-09-23T06:41:49.988Z,1.50
2018-09-23T06:44:18.125Z,1.60
2018-09-23T06:46:46.325Z,1.60
2018-09-23T06:49:14.445Z,1.40
2018-09-23T06:51:42.588Z,1.30
2018-09-23T06:54:10.717Z,1.60
2018-09-23T06:56:38.857Z,1.40
2018-09-23T06:59:07.093Z,1.40
2018-09-23T07:01:35.256Z,1.40
2018-09-23T07:04:03.400Z,1.60
2018-09-23T07:06:31.530Z,1.83
2018-09-23T07:08:59.445Z,1.50
2018-09-23T07:11:27.581Z,1.50
2018-09-23T07:13:55.754Z,1.70
2018-09-23T07:16:23.916Z,1.70
2018-09-23T07:18:51.862Z,1.43
2018-09-23T07:21:19.980Z,1.50
2018-09-23T07:23:48.161Z,1.33
2018-09-23T07:26:16.031Z,1.40
2018-09-23T07:28:44.076Z,1.40
2018-09-23T07:31:12.250Z,1.53
2018-09-23T07:33:40.397Z,1.37
2018-09-23T07:36:10.262Z,1.30
2018-09-23T07:38:38.780Z,1.50
2018-09-23T07:41:07.248Z,1.23
2018-09-23T07:43:35.381Z,1.53
2018-09-23T07:46:03.518Z,1.30
2018-09-23T07:48:31.754Z,1.10
2018-09-23T07:50:59.878Z,1.40
2018-09-23T07:53:28.038Z,1.10
2018-09-23T07:55:56.178Z,1.30
2018-09-23T07:58:24.322Z,1.17
2018-09-23T08:00:52.470Z,1.20
2018-09-23T08:03:20.626Z,1.07
2018-09-23T08:05:48.775Z,1.13
2018-09-23T08:08:16.953Z,1.13
2018-09-23T08:10:45.129Z,1.30
2018-09-23T08:13:13.383Z,1.37
2018-09-23T08:15:41.433Z,1.20
2018-09-23T08:18:09.587Z,1.10
2018-09-23T08:20:37.802Z,1.10
2018-09-23T08:23:05.948Z,0.93
2018-09-23T08:25:34.208Z,1.30
2018-09-23T08:28:02.242Z,0.93
2018-09-23T08:30:30.409Z,1.00
2018-09-23T08:32:58.574Z,0.80
2018-09-23T08:35:26.703Z,1.03
2018-09-23T08:37:54.861Z,1.00
2018-09-23T08:40:23.022Z,1.00
2018-09-23T08:42:50.967Z,1.17
2018-09-23T08:45:18.833Z,1.30
2018-09-23T08:47:46.747Z,0.90
2018-09-23T08:50:14.882Z,1.10
2018-09-23T08:52:42.819Z,1.20
2018-09-23T08:55:10.958Z,1.10
2018-09-23T08:57:39.189Z,1.00
2018-09-23T09:00:07.270Z,1.00
2018-09-23T09:02:35.445Z,0.97
2018-09-23T09:05:03.623Z,1.20
2018-09-23T09:07:31.775Z,1.20
2018-09-23T09:09:59.909Z,1.30
2018-09-23T09:12:28.050Z,1.07
2018-09-23T09:14:56.202Z,1.00
2018-09-23T09:17:24.337Z,1.00
2018-09-23T09:19:52.498Z,1.53
2018-09-23T09:22:20.428Z,1.00
2018-09-23T09:24:48.618Z,0.80
2018-09-23T09:27:16.755Z,0.90
2018-09-23T09:29:44.945Z,1.00
2018-09-23T09:32:13.105Z,0.80
2018-09-23T09:34:41.310Z,0.90
2018-09-23T09:37:09.490Z,0.83
2018-09-23T09:39:37.630Z,0.90
2018-09-23T09:42:05.557Z,0.80
2018-09-23T09:44:33.707Z,0.73
2018-09-23T09:47:01.846Z,0.80
2018-09-23T09:49:29.974Z,0.80
2018-09-23T09:51:58.106Z,0.70
2018-09-23T09:54:26.279Z,0.63
2018-09-23T09:56:54.197Z,0.60
2018-09-23T09:59:22.826Z,0.77
2018-09-23T10:01:51.406Z,0.70
2018-09-23T10:04:19.703Z,0.77
2018-09-23T10:06:47.850Z,0.67
2018-09-23T10:09:15.993Z,0.70
2018-09-23T10:11:44.182Z,0.73
2018-09-23T10:14:12.315Z,0.60
2018-09-23T10:16:40.458Z,0.77
2018-09-23T10:19:08.618Z,1.00
2018-09-23T10:21:36.905Z,0.77
2018-09-23T10:24:04.836Z,0.87
2018-09-23T10:26:33.013Z,0.77
2018-09-23T10:29:00.938Z,0.70
2018-09-23T10:31:29.154Z,0.93
2018-09-23T10:33:57.241Z,0.70
2018-09-23T10:36:25.401Z,0.70
2018-09-23T10:38:53.564Z,0.80
2018-09-23T10:41:21.742Z,0.70
2018-09-23T10:43:49.861Z,0.70
2018-09-23T10:46:18.006Z,0.60
2018-09-23T10:48:46.166Z,0.50
2018-09-23T10:51:14.319Z,0.90
2018-09-23T10:53:42.453Z,0.60
2018-09-23T10:56:10.714Z,0.70
2018-09-23T10:58:38.615Z,0.80
2018-09-23T11:01:06.751Z,0.50
2018-09-23T11:03:34.928Z,1.17
2018-09-23T11:06:02.817Z,0.80
2018-09-23T11:08:31.043Z,0.67
2018-09-23T11:10:59.171Z,0.57
2018-09-23T11:13:27.355Z,0.63
2018-09-23T11:15:55.498Z,0.50
2018-09-23T11:18:23.641Z,0.70
2018-09-23T11:20:51.845Z,0.50
2018-09-23T11:23:20.025Z,0.80
2018-09-23T11:25:48.162Z,0.63
2018-09-23T11:28:16.310Z,0.63
2018-09-23T11:30:44.497Z,0.57
2018-09-23T11:33:12.598Z,0.60
2018-09-23T11:35:40.754Z,0.80
2018-09-23T11:38:08.902Z,0.60
2018-09-23T11:40:37.049Z,0.40
2018-09-23T11:43:04.986Z,0.60
2018-09-23T11:45:32.902Z,0.70
2018-09-23T11:48:00.825Z,0.40
2018-09-23T11:50:28.745Z,0.60
2018-09-23T11:52:56.727Z,0.43
2018-09-23T11:55:24.886Z,0.40
2018-09-23T11:57:53.041Z,0.50
2018-09-23T12:00:21.193Z,0.53
2018-09-23T12:02:49.345Z,0.57
2018-09-23T12:05:17.486Z,0.53
2018-09-23T12:07:45.614Z,0.50
2018-09-23T12:10:13.571Z,0.50
2018-09-23T12:12:41.667Z,0.40
2018-09-23T12:15:09.817Z,0.50
2018-09-23T12:17:37.993Z,0.60
2018-09-23T12:20:06.148Z,0.60
2018-09-23T12:22:34.282Z,0.67
2018-09-23T12:25:02.423Z,0.60
2018-09-23T12:27:30.557Z,0.37
2018-09-23T12:29:58.699Z,0.63
2018-09-23T12:32:26.839Z,0.50
2018-09-23T12:34:55.000Z,0.50
2018-09-23T12:37:23.122Z,0.67
2018-09-23T12:39:51.302Z,0.40
2018-09-23T12:42:19.181Z,0.40
2018-09-23T12:44:47.318Z,0.40
2018-09-23T12:47:15.210Z,0.53
2018-09-23T12:49:43.146Z,0.50
2018-09-23T12:52:11.048Z,0.67
2018-09-23T12:54:38.994Z,0.40
2018-09-23T12:57:06.893Z,0.60
2018-09-23T12:59:35.061Z,0.30
2018-09-23T13:02:03.429Z,0.40
2018-09-23T13:04:31.582Z,0.50
2018-09-23T13:06:59.846Z,0.43
2018-09-23T13:09:28.010Z,0.53
2018-09-23T13:11:55.939Z,0.50
2018-09-23T13:14:24.109Z,0.47
2018-09-23T13:16:52.346Z,0.40
2018-09-23T13:19:20.568Z,0.50
2018-09-23T13:21:48.687Z,0.40
2018-09-23T13:24:16.654Z,0.50
2018-09-23T13:26:44.582Z,0.40
2018-09-23T13:29:12.762Z,0.40
2018-09-23T13:31:40.923Z,0.43
2018-09-23T13:34:09.110Z,0.40
2018-09-23T13:36:37.273Z,0.37
2018-09-23T13:39:06.357Z,0.43
2018-09-23T13:41:34.381Z,0.63
2018-09-23T13:44:02.573Z,0.30
2018-09-23T13:46:30.886Z,0.30
2018-09-23T13:48:59.054Z,0.23
2018-09-23T13:51:27.024Z,0.30
2018-09-23T13:53:54.949Z,0.47
2018-09-23T13:56:22.878Z,0.43
2018-09-23T13:58:51.202Z,0.40
2018-09-23T14:01:19.414Z,0.40
2018-09-23T14:03:47.574Z,0.30
2018-09-23T14:06:15.499Z,0.40
2018-09-23T14:08:43.729Z,0.40
2018-09-23T14:11:11.873Z,0.50
2018-09-23T14:13:40.062Z,0.40
2018-09-23T14:16:08.322Z,0.50
2018-09-23T14:18:36.477Z,0.60
2018-09-23T14:21:04.653Z,0.60
2018-09-23T14:23:32.825Z,0.23
2018-09-23T14:26:00.745Z,0.40
2018-09-23T14:28:28.910Z,0.40
2018-09-23T14:30:57.094Z,0.50
2018-09-23T14:33:25.258Z,0.40
2018-09-23T14:35:53.426Z,0.50
2018-09-23T14:38:21.574Z,0.37
2018-09-23T14:40:49.821Z,0.57
2018-09-23T14:43:17.781Z,0.40
2018-09-23T14:45:45.946Z,0.60
2018-09-23T14:48:14.108Z,0.40
2018-09-23T14:50:42.382Z,0.50
2018-09-23T14:53:10.544Z,0.70
2018-09-23T14:55:38.698Z,0.60
2018-09-23T14:58:06.857Z,0.50
2018-09-23T15:00:35.266Z,0.60
2018-09-23T15:03:03.378Z,0.40
2018-09-23T15:05:31.533Z,0.83
2018-09-23T15:07:59.702Z,0.53
2018-09-23T15:10:27.834Z,0.80
2018-09-23T15:12:56.035Z,0.70
2018-09-23T15:15:24.210Z,0.80
2018-09-23T15:17:52.358Z,0.70
2018-09-23T15:20:20.534Z,0.80
2018-09-23T15:22:48.491Z,0.70
2018-09-23T15:25:16.633Z,0.70
2018-09-23T15:27:44.813Z,0.77
2018-09-23T15:30:12.973Z,0.53
2018-09-23T15:32:41.130Z,0.77
2018-09-23T15:35:09.447Z,0.70
2018-09-23T15:37:37.614Z,0.80
2018-09-23T15:40:05.753Z,0.70
2018-09-23T15:42:33.899Z,1.20
2018-09-23T15:45:02.036Z,0.90
2018-09-23T15:47:30.194Z,0.70
2018-09-23T15:49:58.362Z,1.03
2018-09-23T15:52:26.527Z,0.70
2018-09-23T15:54:54.684Z,0.70
2018-09-23T15:57:22.830Z,0.80
2018-09-23T15:59:51.037Z,0.70
2018-09-23T16:02:19.035Z,0.70
2018-09-23T16:04:47.190Z,0.90
2018-09-23T16:07:15.409Z,0.50
2018-09-23T16:09:43.562Z,0.60
2018-09-23T16:12:11.794Z,0.60
2018-09-23T16:14:39.933Z,0.70
2018-09-23T16:17:08.101Z,0.60
2018-09-23T16:19:36.262Z,0.70
2018-09-23T16:22:04.474Z,0.70
2018-09-23T16:24:33.646Z,0.80
2018-09-23T16:27:02.218Z,0.70
2018-09-23T16:29:30.402Z,0.80
2018-09-23T16:31:58.599Z,0.60
2018-09-23T16:34:26.501Z,0.70
2018-09-23T16:36:55.719Z,0.70
2018-09-23T16:39:24.293Z,0.63
2018-09-23T16:41:53.335Z,0.70
2018-09-23T16:44:22.387Z,0.63
2018-09-23T16:46:50.555Z,0.90
2018-09-23T16:49:18.574Z,0.60
2018-09-23T16:51:46.811Z,0.70
2018-09-23T16:54:15.039Z,0.50
2018-09-23T16:56:43.177Z,0.70
2018-09-23T16:59:11.431Z,1.00
2018-09-23T17:01:40.023Z,3.00
2018-09-23T17:04:08.794Z,1.73
2018-09-23T17:06:36.945Z,2.53
2018-09-23T17:09:06.239Z,2.10
2018-09-23T17:11:34.810Z,1.93
2018-09-23T17:14:03.019Z,1.43
2018-09-23T17:16:31.658Z,1.10
2018-09-23T17:18:59.895Z,0.90
2018-09-23T17:21:27.994Z,1.33
2018-09-23T17:23:56.347Z,1.43
2018-09-23T17:26:26.230Z,1.00
2018-09-23T17:28:55.938Z,1.00
2018-09-23T17:31:24.074Z,0.83
2018-09-23T17:33:52.829Z,0.67
2018-09-23T17:36:21.133Z,0.70
2018-09-23T17:38:50.377Z,0.60
2018-09-23T17:41:19.145Z,0.40
2018-09-23T17:43:47.800Z,0.60
2018-09-23T17:46:16.326Z,0.30
2018-09-23T17:48:45.961Z,0.33
2018-09-23T17:51:14.616Z,0.40
2018-09-23T17:53:50.190Z,0.40
2018-09-23T17:56:18.856Z,0.90
2018-09-23T17:58:47.297Z,0.50
2018-09-23T18:01:15.567Z,0.73
2018-09-23T18:03:43.788Z,0.63
2018-09-23T18:06:12.021Z,0.40
2018-09-23T18:08:40.458Z,0.47
2018-09-23T18:11:10.310Z,0.60
2018-09-23T18:13:39.123Z,0.30
2018-09-23T18:16:11.978Z,0.30
2018-09-23T18:18:39.927Z,0.47
2018-09-23T18:21:08.009Z,0.47
2018-09-23T18:23:37.497Z,0.30
2018-09-23T18:26:06.965Z,0.57
2018-09-23T18:28:36.481Z,0.60
2018-09-23T18:31:05.298Z,0.50
2018-09-23T18:33:34.615Z,0.50
2018-09-23T18:36:03.838Z,0.70
2018-09-23T18:38:32.215Z,0.70
2018-09-23T18:41:00.964Z,0.70
2018-09-23T18:43:29.087Z,0.50
2018-09-23T18:45:57.008Z,0.80
2018-09-23T18:48:24.977Z,0.60
2018-09-23T18:50:52.901Z,0.50
2018-09-23T18:53:21.974Z,0.50
2018-09-23T18:55:52.170Z,0.63
2018-09-23T18:58:21.041Z,0.50
2018-09-23T19:00:50.833Z,0.50
2018-09-23T19:03:20.498Z,0.40
2018-09-23T19:05:50.044Z,0.50
2018-09-23T19:08:19.038Z,0.43
2018-09-23T19:10:47.008Z,0.60
2018-09-23T19:13:20.644Z,0.53
2018-09-23T19:15:55.067Z,0.83
2018-09-23T19:18:25.162Z,0.80
2018-09-23T19:20:53.141Z,0.90
2018-09-23T19:23:21.914Z,1.30
2018-09-23T19:25:51.404Z,1.40
2018-09-23T19:28:20.306Z,1.30
2018-09-23T19:30:49.856Z,1.50
2018-09-23T19:33:20.078Z,1.77
2018-09-23T19:35:50.595Z,1.67
2018-09-23T19:38:19.025Z,1.40
2018-09-23T19:40:46.972Z,1.40
2018-09-23T19:43:16.339Z,1.30
2018-09-23T19:45:46.491Z,1.47
2018-09-23T19:48:14.499Z,1.30
2018-09-23T19:50:42.928Z,1.60
2018-09-23T19:53:11.323Z,1.37
2018-09-23T19:55:39.844Z,1.60
2018-09-23T19:58:08.866Z,1.60
2018-09-23T20:00:37.706Z,1.50
2018-09-23T20:03:05.929Z,1.07
2018-09-23T20:05:34.730Z,1.40
2018-09-23T20:08:04.233Z,1.23
2018-09-23T20:10:32.643Z,1.70
2018-09-23T20:13:01.963Z,1.40
2018-09-23T20:15:30.975Z,1.33
2018-09-23T20:17:59.510Z,1.40
2018-09-23T20:20:27.879Z,1.50
2018-09-23T20:22:56.899Z,1.50
2018-09-23T20:25:25.895Z,1.47
2018-09-23T20:27:54.666Z,1.40
2018-09-23T20:30:23.854Z,1.40
2018-09-23T20:32:51.781Z,1.20
2018-09-23T20:35:20.475Z,1.40
2018-09-23T20:37:48.689Z,1.20
2018-09-23T20:40:16.862Z,1.00
2018-09-23T20:42:45.022Z,1.17
2018-09-23T20:45:12.930Z,1.50
2018-09-23T20:47:40.886Z,1.33
2018-09-23T20:50:08.816Z,1.30
2018-09-23T20:52:38.050Z,1.60
2018-09-23T20:55:06.325Z,1.33
2018-09-23T20:57:35.474Z,1.73
2018-09-23T21:00:03.644Z,1.20
2018-09-23T21:02:31.801Z,1.47
2018-09-23T21:04:59.885Z,1.40
2018-09-23T21:07:28.794Z,1.47
2018-09-23T21:09:58.470Z,1.20
2018-09-23T21:12:27.273Z,1.00
2018-09-23T21:14:56.183Z,1.20
2018-09-23T21:17:26.048Z,0.90
2018-09-23T21:19:54.298Z,1.03
2018-09-23T21:22:22.601Z,0.93
2018-09-23T21:24:51.876Z,1.10
2018-09-23T21:27:20.054Z,1.47
2018-09-23T21:29:48.336Z,1.20
2018-09-23T21:32:16.744Z,1.10
2018-09-23T21:34:44.910Z,1.27
2018-09-23T21:37:14.094Z,1.13
2018-09-23T21:39:42.259Z,1.40
2018-09-23T21:42:10.213Z,1.27
2018-09-23T21:44:38.674Z,1.20
2018-09-23T21:47:07.646Z,1.10
2018-09-23T21:49:35.609Z,1.30
2018-09-23T21:52:03.915Z,1.40
2018-09-23T21:54:32.419Z,1.10
2018-09-23T21:57:01.723Z,1.53
2018-09-23T21:59:30.678Z,1.37
2018-09-23T22:01:59.661Z,1.40
2018-09-23T22:04:27.652Z,1.33
2018-09-23T22:06:55.832Z,1.30
2018-09-23T22:09:23.806Z,1.40
2018-09-23T22:11:51.994Z,1.70
2018-09-23T22:14:20.160Z,1.60
2018-09-23T22:16:48.393Z,1.50
2018-09-23T22:19:16.567Z,1.70
2018-09-23T22:21:44.997Z,1.57
2018-09-23T22:24:12.893Z,1.80
2018-09-23T22:26:41.138Z,2.00
2018-09-23T22:29:09.280Z,1.80
2018-09-23T22:31:38.194Z,1.70
2018-09-23T22:34:06.769Z,1.90
2018-09-23T22:36:35.084Z,1.83
2018-09-23T22:39:03.346Z,1.80
2018-09-23T22:41:31.842Z,1.60
2018-09-23T22:44:00.075Z,1.67
2018-09-23T22:46:28.253Z,1.70
2018-09-23T22:48:56.427Z,1.70
2018-09-23T22:51:24.690Z,1.80
2018-09-23T22:53:52.898Z,1.80
2018-09-23T22:56:21.062Z,1.90
2018-09-23T22:58:49.044Z,1.70
2018-09-23T23:01:17.230Z,1.90
2018-09-23T23:03:45.400Z,1.70
2018-09-23T23:06:13.581Z,1.80
2018-09-23T23:08:42.400Z,1.73
2018-09-23T23:11:10.329Z,1.77
2018-09-23T23:13:38.897Z,1.40
2018-09-23T23:16:07.375Z,1.70
2018-09-23T23:18:35.539Z,1.83
2018-09-23T23:21:03.692Z,1.50
2018-09-23T23:23:31.874Z,1.70
2018-09-23T23:26:01.028Z,1.90
2018-09-23T23:28:28.974Z,1.67
2018-09-23T23:30:56.950Z,1.70
2018-09-23T23:33:24.896Z,1.83
2018-09-23T23:35:53.084Z,1.70
2018-09-23T23:38:21.233Z,1.80
2018-09-23T23:40:50.157Z,1.97
2018-09-23T23:43:18.320Z,1.97
2018-09-23T23:45:46.510Z,2.00
2018-09-23T23:48:14.454Z,1.97
2018-09-23T23:50:42.442Z,1.77
2018-09-23T23:53:11.265Z,1.70
2018-09-23T23:55:40.102Z,1.53
2018-09-23T23:58:08.645Z,1.73
